sensor_id;sensor_type;location;lat;lon;timestamp;P1;durP1;ratioP1;P2;durP2;ratioP2
40150;SDS011;25866;52.420;10.640;2022-09-30T00:01:46;7.03;;;4.40;;
40150;SDS011;25866;52.420;10.640;2022-09-30T00:04:16;6.87;;;4.20;;
40150;SDS011;25866;52.420;10.640;2022-09-30T00:06:43;7.50;;;4.10;;
40150;SDS011;25866;52.420;10.640;2022-09-30T00:09:09;6.87;;;4.03;;
40150;SDS011;25866;52.420;10.640;2022-09-30T00:11:37;5.63;;;3.73;;
40150;SDS011;25866;52.420;10.640;2022-09-30T00:14:03;5.37;;;3.80;;
40150;SDS011;25866;52.420;10.640;2022-09-30T00:16:31;7.30;;;3.80;;
40150;SDS011;25866;52.420;10.640;2022-09-30T00:18:59;7.90;;;4.00;;
40150;SDS011;25866;52.420;10.640;2022-09-30T00:21:27;5.23;;;4.07;;
40150;SDS011;25866;52.420;10.640;2022-09-30T00:23:53;5.47;;;4.20;;
40150;SDS011;25866;52.420;10.640;2022-09-30T00:26:20;4.23;;;3.70;;
40150;SDS011;25866;52.420;10.640;2022-09-30T00:29:05;4.70;;;4.17;;
40150;SDS011;25866;52.420;10.640;2022-09-30T00:31:32;4.97;;;3.80;;
40150;SDS011;25866;52.420;10.640;2022-09-30T00:33:58;5.70;;;4.30;;
40150;SDS011;25866;52.420;10.640;2022-09-30T00:39:09;6.93;;;3.90;;
40150;SDS011;25866;52.420;10.640;2022-09-30T00:41:38;4.70;;;3.90;;
40150;SDS011;25866;52.420;10.640;2022-09-30T00:47:24;6.27;;;3.70;;
40150;SDS011;25866;52.420;10.640;2022-09-30T00:53:03;6.37;;;4.73;;
40150;SDS011;25866;52.420;10.640;2022-09-30T00:58:40;5.70;;;3.93;;
40150;SDS011;25866;52.420;10.640;2022-09-30T01:01:07;4.30;;;3.80;;
40150;SDS011;25866;52.420;10.640;2022-09-30T01:03:40;6.53;;;3.97;;
40150;SDS011;25866;52.420;10.640;2022-09-30T01:06:10;4.67;;;3.97;;
40150;SDS011;25866;52.420;10.640;2022-09-30T01:08:37;4.43;;;3.80;;
40150;SDS011;25866;52.420;10.640;2022-09-30T01:11:04;5.70;;;4.40;;
40150;SDS011;25866;52.420;10.640;2022-09-30T01:13:30;4.60;;;3.90;;
40150;SDS011;25866;52.420;10.640;2022-09-30T01:24:31;4.63;;;3.63;;
40150;SDS011;25866;52.420;10.640;2022-09-30T01:27:14;5.83;;;3.93;;
40150;SDS011;25866;52.420;10.640;2022-09-30T01:35:56;5.87;;;3.53;;
40150;SDS011;25866;52.420;10.640;2022-09-30T01:41:26;5.13;;;3.70;;
40150;SDS011;25866;52.420;10.640;2022-09-30T01:44:10;5.07;;;3.67;;
40150;SDS011;25866;52.420;10.640;2022-09-30T01:47:24;4.80;;;3.93;;
40150;SDS011;25866;52.420;10.640;2022-09-30T01:49:49;3.93;;;3.53;;
40150;SDS011;25866;52.420;10.640;2022-09-30T01:52:39;7.60;;;3.27;;
40150;SDS011;25866;52.420;10.640;2022-09-30T01:55:16;4.80;;;3.67;;
40150;SDS011;25866;52.420;10.640;2022-09-30T02:00:13;4.63;;;3.23;;
40150;SDS011;25866;52.420;10.640;2022-09-30T02:02:53;4.03;;;3.40;;
40150;SDS011;25866;52.420;10.640;2022-09-30T02:08:02;4.17;;;3.70;;
40150;SDS011;25866;52.420;10.640;2022-09-30T02:10:34;4.20;;;3.57;;
40150;SDS011;25866;52.420;10.640;2022-09-30T02:15:39;6.07;;;3.50;;
40150;SDS011;25866;52.420;10.640;2022-09-30T02:18:13;4.90;;;3.33;;
40150;SDS011;25866;52.420;10.640;2022-09-30T02:20:45;5.73;;;3.87;;
40150;SDS011;25866;52.420;10.640;2022-09-30T02:23:16;4.00;;;3.60;;
40150;SDS011;25866;52.420;10.640;2022-09-30T02:26:00;4.60;;;3.37;;
40150;SDS011;25866;52.420;10.640;2022-09-30T02:28:52;4.63;;;3.87;;
40150;SDS011;25866;52.420;10.640;2022-09-30T02:31:23;5.50;;;3.37;;
40150;SDS011;25866;52.420;10.640;2022-09-30T02:33:53;5.60;;;3.57;;
40150;SDS011;25866;52.420;10.640;2022-09-30T02:36:26;3.67;;;3.30;;
40150;SDS011;25866;52.420;10.640;2022-09-30T02:41:52;3.53;;;3.20;;
40150;SDS011;25866;52.420;10.640;2022-09-30T02:44:24;5.63;;;3.97;;
40150;SDS011;25866;52.420;10.640;2022-09-30T02:50:03;4.30;;;3.60;;
40150;SDS011;25866;52.420;10.640;2022-09-30T02:55:43;4.27;;;3.57;;
40150;SDS011;25866;52.420;10.640;2022-09-30T02:58:32;4.20;;;3.80;;
40150;SDS011;25866;52.420;10.640;2022-09-30T03:01:00;4.17;;;3.30;;
40150;SDS011;25866;52.420;10.640;2022-09-30T03:06:21;10.63;;;4.53;;
40150;SDS011;25866;52.420;10.640;2022-09-30T03:08:47;4.83;;;3.87;;
40150;SDS011;25866;52.420;10.640;2022-09-30T03:11:16;5.40;;;3.73;;
40150;SDS011;25866;52.420;10.640;2022-09-30T03:19:49;4.17;;;3.73;;
40150;SDS011;25866;52.420;10.640;2022-09-30T03:25:37;5.20;;;3.33;;
40150;SDS011;25866;52.420;10.640;2022-09-30T03:31:33;6.23;;;3.73;;
40150;SDS011;25866;52.420;10.640;2022-09-30T03:34:23;3.97;;;3.50;;
40150;SDS011;25866;52.420;10.640;2022-09-30T03:37:13;6.87;;;3.60;;
40150;SDS011;25866;52.420;10.640;2022-09-30T03:39:56;4.20;;;3.80;;
40150;SDS011;25866;52.420;10.640;2022-09-30T03:42:35;5.50;;;3.50;;
40150;SDS011;25866;52.420;10.640;2022-09-30T03:45:07;4.70;;;3.43;;
40150;SDS011;25866;52.420;10.640;2022-09-30T03:47:50;4.57;;;3.77;;
40150;SDS011;25866;52.420;10.640;2022-09-30T03:50:20;4.13;;;3.63;;
40150;SDS011;25866;52.420;10.640;2022-09-30T03:52:47;4.70;;;3.40;;
40150;SDS011;25866;52.420;10.640;2022-09-30T03:55:15;4.67;;;3.60;;
40150;SDS011;25866;52.420;10.640;2022-09-30T03:57:41;5.33;;;3.73;;
40150;SDS011;25866;52.420;10.640;2022-09-30T04:00:09;4.53;;;3.90;;
40150;SDS011;25866;52.420;10.640;2022-09-30T04:02:37;4.57;;;3.80;;
40150;SDS011;25866;52.420;10.640;2022-09-30T04:05:03;5.67;;;3.30;;
40150;SDS011;25866;52.420;10.640;2022-09-30T04:07:30;4.70;;;4.10;;
40150;SDS011;25866;52.420;10.640;2022-09-30T04:09:57;4.43;;;3.93;;
40150;SDS011;25866;52.420;10.640;2022-09-30T04:12:23;5.63;;;3.90;;
40150;SDS011;25866;52.420;10.640;2022-09-30T04:14:57;4.40;;;3.83;;
40150;SDS011;25866;52.420;10.640;2022-09-30T04:17:23;4.77;;;3.50;;
40150;SDS011;25866;52.420;10.640;2022-09-30T04:19:48;5.10;;;3.87;;
40150;SDS011;25866;52.420;10.640;2022-09-30T04:22:14;4.97;;;3.80;;
40150;SDS011;25866;52.420;10.640;2022-09-30T04:24:40;8.30;;;4.00;;
40150;SDS011;25866;52.420;10.640;2022-09-30T04:27:07;7.73;;;4.60;;
40150;SDS011;25866;52.420;10.640;2022-09-30T04:29:32;5.53;;;4.20;;
40150;SDS011;25866;52.420;10.640;2022-09-30T04:31:58;6.13;;;4.17;;
40150;SDS011;25866;52.420;10.640;2022-09-30T04:34:24;8.37;;;3.60;;
40150;SDS011;25866;52.420;10.640;2022-09-30T04:36:50;6.07;;;3.97;;
40150;SDS011;25866;52.420;10.640;2022-09-30T04:39:15;5.20;;;3.97;;
40150;SDS011;25866;52.420;10.640;2022-09-30T04:41:41;7.90;;;3.63;;
40150;SDS011;25866;52.420;10.640;2022-09-30T04:44:09;11.43;;;4.33;;
40150;SDS011;25866;52.420;10.640;2022-09-30T04:46:35;5.80;;;3.73;;
40150;SDS011;25866;52.420;10.640;2022-09-30T04:49:02;5.00;;;3.77;;
40150;SDS011;25866;52.420;10.640;2022-09-30T04:51:28;4.57;;;3.87;;
40150;SDS011;25866;52.420;10.640;2022-09-30T04:53:55;5.17;;;4.17;;
40150;SDS011;25866;52.420;10.640;2022-09-30T04:56:22;6.60;;;4.00;;
40150;SDS011;25866;52.420;10.640;2022-09-30T04:58:49;4.23;;;3.83;;
40150;SDS011;25866;52.420;10.640;2022-09-30T05:01:16;4.77;;;3.73;;
40150;SDS011;25866;52.420;10.640;2022-09-30T05:03:44;4.73;;;4.07;;
40150;SDS011;25866;52.420;10.640;2022-09-30T05:06:11;8.20;;;4.03;;
40150;SDS011;25866;52.420;10.640;2022-09-30T05:08:38;6.93;;;4.63;;
40150;SDS011;25866;52.420;10.640;2022-09-30T05:11:07;5.40;;;4.23;;
40150;SDS011;25866;52.420;10.640;2022-09-30T05:13:35;5.37;;;3.60;;
40150;SDS011;25866;52.420;10.640;2022-09-30T05:16:03;4.90;;;3.97;;
40150;SDS011;25866;52.420;10.640;2022-09-30T05:18:29;3.80;;;3.30;;
40150;SDS011;25866;52.420;10.640;2022-09-30T05:20:55;7.83;;;4.20;;
40150;SDS011;25866;52.420;10.640;2022-09-30T05:23:22;4.33;;;3.43;;
40150;SDS011;25866;52.420;10.640;2022-09-30T05:25:49;4.33;;;3.90;;
40150;SDS011;25866;52.420;10.640;2022-09-30T05:28:15;6.23;;;4.60;;
40150;SDS011;25866;52.420;10.640;2022-09-30T05:30:42;5.90;;;4.73;;
40150;SDS011;25866;52.420;10.640;2022-09-30T05:33:12;5.47;;;4.27;;
40150;SDS011;25866;52.420;10.640;2022-09-30T05:35:41;7.20;;;4.33;;
40150;SDS011;25866;52.420;10.640;2022-09-30T05:38:08;6.63;;;5.07;;
40150;SDS011;25866;52.420;10.640;2022-09-30T05:40:38;5.47;;;4.07;;
40150;SDS011;25866;52.420;10.640;2022-09-30T05:43:04;6.00;;;4.47;;
40150;SDS011;25866;52.420;10.640;2022-09-30T05:45:31;5.70;;;4.97;;
40150;SDS011;25866;52.420;10.640;2022-09-30T05:47:57;5.60;;;4.50;;
40150;SDS011;25866;52.420;10.640;2022-09-30T05:50:23;5.13;;;4.00;;
40150;SDS011;25866;52.420;10.640;2022-09-30T05:52:50;6.23;;;4.70;;
40150;SDS011;25866;52.420;10.640;2022-09-30T05:55:18;8.67;;;4.20;;
40150;SDS011;25866;52.420;10.640;2022-09-30T05:57:47;7.57;;;4.23;;
40150;SDS011;25866;52.420;10.640;2022-09-30T06:00:13;4.53;;;4.03;;
40150;SDS011;25866;52.420;10.640;2022-09-30T06:02:40;7.43;;;3.93;;
40150;SDS011;25866;52.420;10.640;2022-09-30T06:05:06;4.63;;;4.10;;
40150;SDS011;25866;52.420;10.640;2022-09-30T06:07:33;4.50;;;3.73;;
40150;SDS011;25866;52.420;10.640;2022-09-30T06:10:00;4.73;;;3.93;;
40150;SDS011;25866;52.420;10.640;2022-09-30T06:12:27;5.43;;;3.90;;
40150;SDS011;25866;52.420;10.640;2022-09-30T06:14:55;5.50;;;4.17;;
40150;SDS011;25866;52.420;10.640;2022-09-30T06:17:21;4.67;;;4.00;;
40150;SDS011;25866;52.420;10.640;2022-09-30T06:19:47;5.13;;;4.30;;
40150;SDS011;25866;52.420;10.640;2022-09-30T06:22:16;4.17;;;3.70;;
40150;SDS011;25866;52.420;10.640;2022-09-30T06:24:50;4.70;;;4.03;;
40150;SDS011;25866;52.420;10.640;2022-09-30T06:40:46;4.83;;;4.10;;
40150;SDS011;25866;52.420;10.640;2022-09-30T06:43:14;6.60;;;4.27;;
40150;SDS011;25866;52.420;10.640;2022-09-30T06:45:44;6.37;;;4.30;;
40150;SDS011;25866;52.420;10.640;2022-09-30T06:48:11;5.80;;;4.47;;
40150;SDS011;25866;52.420;10.640;2022-09-30T06:50:37;4.70;;;4.23;;
40150;SDS011;25866;52.420;10.640;2022-09-30T06:53:05;4.50;;;4.10;;
40150;SDS011;25866;52.420;10.640;2022-09-30T06:55:32;4.40;;;3.80;;
40150;SDS011;25866;52.420;10.640;2022-09-30T06:58:03;6.77;;;4.40;;
40150;SDS011;25866;52.420;10.640;2022-09-30T07:00:37;5.90;;;4.30;;
40150;SDS011;25866;52.420;10.640;2022-09-30T07:03:03;6.40;;;4.70;;
40150;SDS011;25866;52.420;10.640;2022-09-30T07:05:36;5.90;;;4.60;;
40150;SDS011;25866;52.420;10.640;2022-09-30T07:08:02;6.87;;;4.53;;
40150;SDS011;25866;52.420;10.640;2022-09-30T07:10:28;6.20;;;4.67;;
40150;SDS011;25866;52.420;10.640;2022-09-30T07:12:54;7.82;;;4.68;;
40150;SDS011;25866;52.420;10.640;2022-09-30T07:15:20;7.53;;;4.77;;
40150;SDS011;25866;52.420;10.640;2022-09-30T07:17:53;6.00;;;4.90;;
40150;SDS011;25866;52.420;10.640;2022-09-30T07:20:20;5.33;;;4.37;;
40150;SDS011;25866;52.420;10.640;2022-09-30T07:22:46;5.88;;;4.32;;
40150;SDS011;25866;52.420;10.640;2022-09-30T07:25:12;6.43;;;4.75;;
40150;SDS011;25866;52.420;10.640;2022-09-30T07:27:39;6.40;;;4.60;;
40150;SDS011;25866;52.420;10.640;2022-09-30T07:30:05;8.73;;;4.57;;
40150;SDS011;25866;52.420;10.640;2022-09-30T07:32:31;7.10;;;4.90;;
40150;SDS011;25866;52.420;10.640;2022-09-30T07:34:57;5.87;;;5.00;;
40150;SDS011;25866;52.420;10.640;2022-09-30T07:37:30;8.00;;;5.20;;
40150;SDS011;25866;52.420;10.640;2022-09-30T07:39:58;6.77;;;4.97;;
40150;SDS011;25866;52.420;10.640;2022-09-30T07:42:24;7.43;;;4.93;;
40150;SDS011;25866;52.420;10.640;2022-09-30T07:44:50;5.77;;;5.00;;
40150;SDS011;25866;52.420;10.640;2022-09-30T07:47:18;6.43;;;5.17;;
40150;SDS011;25866;52.420;10.640;2022-09-30T07:49:44;7.47;;;5.35;;
40150;SDS011;25866;52.420;10.640;2022-09-30T07:52:10;7.73;;;5.60;;
40150;SDS011;25866;52.420;10.640;2022-09-30T07:54:37;6.45;;;5.28;;
40150;SDS011;25866;52.420;10.640;2022-09-30T07:57:04;8.50;;;5.27;;
40150;SDS011;25866;52.420;10.640;2022-09-30T07:59:31;8.80;;;5.20;;
40150;SDS011;25866;52.420;10.640;2022-09-30T08:02:00;8.35;;;5.30;;
40150;SDS011;25866;52.420;10.640;2022-09-30T08:04:26;9.77;;;5.18;;
40150;SDS011;25866;52.420;10.640;2022-09-30T08:06:54;8.00;;;5.75;;
40150;SDS011;25866;52.420;10.640;2022-09-30T08:09:24;7.63;;;5.80;;
40150;SDS011;25866;52.420;10.640;2022-09-30T08:11:53;10.20;;;6.07;;
40150;SDS011;25866;52.420;10.640;2022-09-30T08:14:20;11.82;;;5.95;;
40150;SDS011;25866;52.420;10.640;2022-09-30T08:16:51;11.23;;;6.13;;
40150;SDS011;25866;52.420;10.640;2022-09-30T08:19:18;11.43;;;5.93;;
40150;SDS011;25866;52.420;10.640;2022-09-30T08:21:45;9.25;;;6.40;;
40150;SDS011;25866;52.420;10.640;2022-09-30T08:24:11;8.95;;;6.43;;
40150;SDS011;25866;52.420;10.640;2022-09-30T08:26:38;6.75;;;5.47;;
40150;SDS011;25866;52.420;10.640;2022-09-30T08:29:04;9.95;;;6.10;;
40150;SDS011;25866;52.420;10.640;2022-09-30T08:31:30;7.88;;;6.22;;
40150;SDS011;25866;52.420;10.640;2022-09-30T08:33:57;8.38;;;5.85;;
40150;SDS011;25866;52.420;10.640;2022-09-30T08:36:24;10.70;;;5.65;;
40150;SDS011;25866;52.420;10.640;2022-09-30T08:38:51;7.50;;;5.82;;
40150;SDS011;25866;52.420;10.640;2022-09-30T08:46:58;7.85;;;6.18;;
40150;SDS011;25866;52.420;10.640;2022-09-30T08:52:34;7.72;;;6.18;;
40150;SDS011;25866;52.420;10.640;2022-09-30T08:55:04;7.53;;;6.10;;
40150;SDS011;25866;52.420;10.640;2022-09-30T08:57:38;11.10;;;6.32;;
40150;SDS011;25866;52.420;10.640;2022-09-30T09:00:10;14.15;;;6.03;;
40150;SDS011;25866;52.420;10.640;2022-09-30T09:02:42;15.60;;;7.43;;
40150;SDS011;25866;52.420;10.640;2022-09-30T09:13:59;10.38;;;6.43;;
40150;SDS011;25866;52.420;10.640;2022-09-30T09:24:17;12.65;;;6.22;;
40150;SDS011;25866;52.420;10.640;2022-09-30T09:26:52;8.80;;;5.93;;
40150;SDS011;25866;52.420;10.640;2022-09-30T09:29:40;6.55;;;5.88;;
40150;SDS011;25866;52.420;10.640;2022-09-30T09:32:13;7.75;;;6.50;;
40150;SDS011;25866;52.420;10.640;2022-09-30T09:34:41;8.18;;;5.93;;
40150;SDS011;25866;52.420;10.640;2022-09-30T09:38:11;8.73;;;5.60;;
40150;SDS011;25866;52.420;10.640;2022-09-30T09:40:43;8.75;;;5.93;;
40150;SDS011;25866;52.420;10.640;2022-09-30T09:48:35;12.30;;;5.90;;
40150;SDS011;25866;52.420;10.640;2022-09-30T09:51:27;7.05;;;5.43;;
40150;SDS011;25866;52.420;10.640;2022-09-30T09:54:01;5.55;;;4.95;;
40150;SDS011;25866;52.420;10.640;2022-09-30T09:56:33;10.10;;;5.15;;
40150;SDS011;25866;52.420;10.640;2022-09-30T10:01:42;8.82;;;5.30;;
40150;SDS011;25866;52.420;10.640;2022-09-30T10:04:09;6.40;;;4.88;;
40150;SDS011;25866;52.420;10.640;2022-09-30T10:09:24;9.80;;;4.63;;
40150;SDS011;25866;52.420;10.640;2022-09-30T10:14:56;6.47;;;4.32;;
40150;SDS011;25866;52.420;10.640;2022-09-30T10:17:31;6.30;;;4.57;;
40150;SDS011;25866;52.420;10.640;2022-09-30T10:20:07;8.73;;;4.60;;
40150;SDS011;25866;52.420;10.640;2022-09-30T10:22:47;6.07;;;4.43;;
40150;SDS011;25866;52.420;10.640;2022-09-30T10:30:48;12.27;;;4.10;;
40150;SDS011;25866;52.420;10.640;2022-09-30T10:36:05;8.73;;;4.15;;
40150;SDS011;25866;52.420;10.640;2022-09-30T10:38:36;5.50;;;4.05;;
40150;SDS011;25866;52.420;10.640;2022-09-30T10:41:13;8.27;;;4.65;;
40150;SDS011;25866;52.420;10.640;2022-09-30T10:43:49;8.18;;;4.60;;
40150;SDS011;25866;52.420;10.640;2022-09-30T10:46:21;7.40;;;4.93;;
40150;SDS011;25866;52.420;10.640;2022-09-30T10:48:59;9.63;;;5.10;;
40150;SDS011;25866;52.420;10.640;2022-09-30T10:51:34;7.90;;;5.30;;
40150;SDS011;25866;52.420;10.640;2022-09-30T10:54:00;7.63;;;5.03;;
40150;SDS011;25866;52.420;10.640;2022-09-30T10:56:32;8.57;;;5.00;;
40150;SDS011;25866;52.420;10.640;2022-09-30T10:59:15;6.80;;;5.03;;
40150;SDS011;25866;52.420;10.640;2022-09-30T11:01:57;8.18;;;5.43;;
40150;SDS011;25866;52.420;10.640;2022-09-30T11:07:12;6.85;;;5.32;;
40150;SDS011;25866;52.420;10.640;2022-09-30T11:12:40;7.47;;;5.10;;
40150;SDS011;25866;52.420;10.640;2022-09-30T11:15:27;8.32;;;4.43;;
40150;SDS011;25866;52.420;10.640;2022-09-30T11:18:04;6.80;;;4.75;;
40150;SDS011;25866;52.420;10.640;2022-09-30T11:20:42;7.88;;;4.80;;
40150;SDS011;25866;52.420;10.640;2022-09-30T11:25:57;8.38;;;4.60;;
40150;SDS011;25866;52.420;10.640;2022-09-30T11:34:33;5.28;;;4.25;;
40150;SDS011;25866;52.420;10.640;2022-09-30T11:37:22;7.93;;;4.55;;
40150;SDS011;25866;52.420;10.640;2022-09-30T11:43:04;7.50;;;4.75;;
40150;SDS011;25866;52.420;10.640;2022-09-30T11:51:41;7.13;;;4.30;;
40150;SDS011;25866;52.420;10.640;2022-09-30T12:00:05;4.13;;;3.42;;
40150;SDS011;25866;52.420;10.640;2022-09-30T12:02:46;7.15;;;3.53;;
40150;SDS011;25866;52.420;10.640;2022-09-30T12:05:28;5.18;;;3.90;;
40150;SDS011;25866;52.420;10.640;2022-09-30T12:08:03;7.57;;;3.70;;
40150;SDS011;25866;52.420;10.640;2022-09-30T12:13:38;4.57;;;3.17;;
40150;SDS011;25866;52.420;10.640;2022-09-30T12:16:11;4.60;;;3.22;;
40150;SDS011;25866;52.420;10.640;2022-09-30T12:24:08;4.00;;;3.05;;
40150;SDS011;25866;52.420;10.640;2022-09-30T12:26:35;2.92;;;2.53;;
40150;SDS011;25866;52.420;10.640;2022-09-30T12:40:48;5.32;;;2.40;;
40150;SDS011;25866;52.420;10.640;2022-09-30T12:43:40;7.70;;;2.90;;
40150;SDS011;25866;52.420;10.640;2022-09-30T12:46:16;3.63;;;2.50;;
40150;SDS011;25866;52.420;10.640;2022-09-30T12:48:52;4.28;;;2.42;;
40150;SDS011;25866;52.420;10.640;2022-09-30T12:54:05;3.17;;;2.15;;
40150;SDS011;25866;52.420;10.640;2022-09-30T12:56:58;4.07;;;2.30;;
40150;SDS011;25866;52.420;10.640;2022-09-30T12:59:37;2.85;;;2.13;;
40150;SDS011;25866;52.420;10.640;2022-09-30T13:02:20;2.88;;;1.92;;
40150;SDS011;25866;52.420;10.640;2022-09-30T13:04:52;4.15;;;1.63;;
40150;SDS011;25866;52.420;10.640;2022-09-30T13:07:21;2.05;;;1.35;;
40150;SDS011;25866;52.420;10.640;2022-09-30T13:10:22;3.92;;;2.25;;
40150;SDS011;25866;52.420;10.640;2022-09-30T13:15:55;2.70;;;2.40;;
40150;SDS011;25866;52.420;10.640;2022-09-30T13:20:54;3.40;;;2.25;;
40150;SDS011;25866;52.420;10.640;2022-09-30T13:26:01;5.22;;;2.08;;
40150;SDS011;25866;52.420;10.640;2022-09-30T13:28:29;2.80;;;2.03;;
40150;SDS011;25866;52.420;10.640;2022-09-30T13:31:12;4.18;;;1.70;;
40150;SDS011;25866;52.420;10.640;2022-09-30T13:33:41;8.18;;;1.95;;
40150;SDS011;25866;52.420;10.640;2022-09-30T13:47:31;4.80;;;2.58;;
40150;SDS011;25866;52.420;10.640;2022-09-30T13:53:00;5.53;;;2.45;;
40150;SDS011;25866;52.420;10.640;2022-09-30T14:13:03;2.83;;;1.00;;
40150;SDS011;25866;52.420;10.640;2022-09-30T14:23:55;1.92;;;1.10;;
40150;SDS011;25866;52.420;10.640;2022-09-30T14:28:56;4.47;;;0.93;;
40150;SDS011;25866;52.420;10.640;2022-09-30T14:31:50;2.55;;;1.05;;
40150;SDS011;25866;52.420;10.640;2022-09-30T14:34:16;3.78;;;0.82;;
40150;SDS011;25866;52.420;10.640;2022-09-30T14:36:45;1.85;;;0.93;;
40150;SDS011;25866;52.420;10.640;2022-09-30T14:39:14;0.90;;;0.73;;
40150;SDS011;25866;52.420;10.640;2022-09-30T14:41:50;1.95;;;0.90;;
40150;SDS011;25866;52.420;10.640;2022-09-30T14:44:22;2.33;;;1.00;;
40150;SDS011;25866;52.420;10.640;2022-09-30T14:46:51;1.10;;;0.90;;
40150;SDS011;25866;52.420;10.640;2022-09-30T14:49:24;1.35;;;1.00;;
40150;SDS011;25866;52.420;10.640;2022-09-30T14:51:56;1.45;;;0.80;;
40150;SDS011;25866;52.420;10.640;2022-09-30T14:54:27;2.42;;;1.00;;
40150;SDS011;25866;52.420;10.640;2022-09-30T14:56:55;3.53;;;0.80;;
40150;SDS011;25866;52.420;10.640;2022-09-30T15:01:59;3.35;;;1.05;;
40150;SDS011;25866;52.420;10.640;2022-09-30T15:04:33;0.85;;;0.80;;
40150;SDS011;25866;52.420;10.640;2022-09-30T15:07:03;1.13;;;0.80;;
40150;SDS011;25866;52.420;10.640;2022-09-30T15:09:40;1.00;;;0.68;;
40150;SDS011;25866;52.420;10.640;2022-09-30T15:12:22;3.55;;;1.10;;
40150;SDS011;25866;52.420;10.640;2022-09-30T15:14:52;2.10;;;0.80;;
40150;SDS011;25866;52.420;10.640;2022-09-30T15:17:21;2.25;;;0.85;;
40150;SDS011;25866;52.420;10.640;2022-09-30T15:19:50;0.82;;;0.77;;
40150;SDS011;25866;52.420;10.640;2022-09-30T15:22:16;1.63;;;0.93;;
40150;SDS011;25866;52.420;10.640;2022-09-30T15:24:43;1.75;;;0.70;;
40150;SDS011;25866;52.420;10.640;2022-09-30T15:27:30;1.10;;;0.80;;
40150;SDS011;25866;52.420;10.640;2022-09-30T15:30:42;2.20;;;0.75;;
40150;SDS011;25866;52.420;10.640;2022-09-30T15:32:57;1.65;;;0.90;;
40150;SDS011;25866;52.420;10.640;2022-09-30T15:35:25;1.83;;;0.75;;
40150;SDS011;25866;52.420;10.640;2022-09-30T15:37:51;1.63;;;0.85;;
40150;SDS011;25866;52.420;10.640;2022-09-30T15:40:21;2.50;;;0.77;;
40150;SDS011;25866;52.420;10.640;2022-09-30T15:43:13;2.97;;;1.00;;
40150;SDS011;25866;52.420;10.640;2022-09-30T15:45:55;3.10;;;1.00;;
40150;SDS011;25866;52.420;10.640;2022-09-30T15:50:51;2.05;;;0.70;;
40150;SDS011;25866;52.420;10.640;2022-09-30T15:53:20;7.95;;;1.08;;
40150;SDS011;25866;52.420;10.640;2022-09-30T15:55:48;2.08;;;1.10;;
40150;SDS011;25866;52.420;10.640;2022-09-30T16:01:51;0.82;;;0.70;;
40150;SDS011;25866;52.420;10.640;2022-09-30T16:04:22;1.55;;;0.82;;
40150;SDS011;25866;52.420;10.640;2022-09-30T16:07:07;1.27;;;0.75;;
40150;SDS011;25866;52.420;10.640;2022-09-30T16:09:36;1.98;;;1.10;;
40150;SDS011;25866;52.420;10.640;2022-09-30T16:15:10;3.13;;;0.90;;
40150;SDS011;25866;52.420;10.640;2022-09-30T16:17:43;1.02;;;0.82;;
40150;SDS011;25866;52.420;10.640;2022-09-30T16:30:25;0.70;;;0.70;;
40150;SDS011;25866;52.420;10.640;2022-09-30T16:32:55;3.47;;;0.73;;
40150;SDS011;25866;52.420;10.640;2022-09-30T16:35:24;1.48;;;1.02;;
40150;SDS011;25866;52.420;10.640;2022-09-30T16:37:59;1.85;;;0.90;;
40150;SDS011;25866;52.420;10.640;2022-09-30T16:40:26;3.97;;;1.00;;
40150;SDS011;25866;52.420;10.640;2022-09-30T16:43:07;1.02;;;0.70;;
40150;SDS011;25866;52.420;10.640;2022-09-30T16:45:36;4.05;;;0.90;;
40150;SDS011;25866;52.420;10.640;2022-09-30T16:48:07;1.27;;;1.17;;
40150;SDS011;25866;52.420;10.640;2022-09-30T16:53:10;1.60;;;0.90;;
40150;SDS011;25866;52.420;10.640;2022-09-30T16:55:36;0.93;;;0.82;;
40150;SDS011;25866;52.420;10.640;2022-09-30T16:58:02;1.92;;;1.00;;
40150;SDS011;25866;52.420;10.640;2022-09-30T17:00:29;2.25;;;1.10;;
40150;SDS011;25866;52.420;10.640;2022-09-30T17:02:57;2.50;;;1.10;;
40150;SDS011;25866;52.420;10.640;2022-09-30T17:05:23;2.88;;;1.17;;
40150;SDS011;25866;52.420;10.640;2022-09-30T17:07:57;2.08;;;1.15;;
40150;SDS011;25866;52.420;10.640;2022-09-30T17:13:05;1.67;;;0.98;;
40150;SDS011;25866;52.420;10.640;2022-09-30T17:15:32;5.68;;;1.30;;
40150;SDS011;25866;52.420;10.640;2022-09-30T17:18:02;2.08;;;1.13;;
40150;SDS011;25866;52.420;10.640;2022-09-30T17:20:31;2.97;;;1.13;;
40150;SDS011;25866;52.420;10.640;2022-09-30T17:22:58;2.20;;;1.30;;
40150;SDS011;25866;52.420;10.640;2022-09-30T17:25:24;1.35;;;1.20;;
40150;SDS011;25866;52.420;10.640;2022-09-30T17:27:50;2.13;;;1.17;;
40150;SDS011;25866;52.420;10.640;2022-09-30T17:30:16;5.40;;;1.20;;
40150;SDS011;25866;52.420;10.640;2022-09-30T17:32:49;2.15;;;1.23;;
40150;SDS011;25866;52.420;10.640;2022-09-30T17:35:16;4.32;;;1.10;;
40150;SDS011;25866;52.420;10.640;2022-09-30T17:37:42;1.70;;;1.20;;
40150;SDS011;25866;52.420;10.640;2022-09-30T17:40:09;1.85;;;1.25;;
40150;SDS011;25866;52.420;10.640;2022-09-30T17:42:55;2.20;;;1.27;;
40150;SDS011;25866;52.420;10.640;2022-09-30T17:45:38;2.90;;;1.42;;
40150;SDS011;25866;52.420;10.640;2022-09-30T17:48:05;2.05;;;1.20;;
40150;SDS011;25866;52.420;10.640;2022-09-30T17:50:34;3.33;;;1.23;;
40150;SDS011;25866;52.420;10.640;2022-09-30T17:53:01;2.53;;;1.48;;
40150;SDS011;25866;52.420;10.640;2022-09-30T17:55:28;2.88;;;1.60;;
40150;SDS011;25866;52.420;10.640;2022-09-30T17:57:54;4.28;;;2.08;;
40150;SDS011;25866;52.420;10.640;2022-09-30T18:00:20;1.70;;;1.30;;
40150;SDS011;25866;52.420;10.640;2022-09-30T18:02:48;5.45;;;1.90;;
40150;SDS011;25866;52.420;10.640;2022-09-30T18:05:14;2.05;;;1.33;;
40150;SDS011;25866;52.420;10.640;2022-09-30T18:07:42;3.05;;;1.30;;
40150;SDS011;25866;52.420;10.640;2022-09-30T18:10:09;6.25;;;1.67;;
40150;SDS011;25866;52.420;10.640;2022-09-30T18:12:35;1.77;;;1.35;;
40150;SDS011;25866;52.420;10.640;2022-09-30T18:15:01;3.47;;;1.35;;
40150;SDS011;25866;52.420;10.640;2022-09-30T18:17:27;2.65;;;1.70;;
40150;SDS011;25866;52.420;10.640;2022-09-30T18:19:52;2.22;;;1.38;;
40150;SDS011;25866;52.420;10.640;2022-09-30T18:22:18;2.50;;;1.20;;
40150;SDS011;25866;52.420;10.640;2022-09-30T18:24:44;2.45;;;1.60;;
40150;SDS011;25866;52.420;10.640;2022-09-30T18:27:28;2.30;;;1.55;;
40150;SDS011;25866;52.420;10.640;2022-09-30T18:29:58;2.58;;;1.70;;
40150;SDS011;25866;52.420;10.640;2022-09-30T18:32:25;2.42;;;1.50;;
40150;SDS011;25866;52.420;10.640;2022-09-30T18:34:53;2.20;;;1.20;;
40150;SDS011;25866;52.420;10.640;2022-09-30T18:37:20;2.00;;;1.50;;
40150;SDS011;25866;52.420;10.640;2022-09-30T18:39:49;4.57;;;1.60;;
40150;SDS011;25866;52.420;10.640;2022-09-30T18:42:16;1.73;;;1.27;;
40150;SDS011;25866;52.420;10.640;2022-09-30T18:44:44;2.88;;;1.52;;
40150;SDS011;25866;52.420;10.640;2022-09-30T18:47:10;2.03;;;1.27;;
40150;SDS011;25866;52.420;10.640;2022-09-30T18:49:36;1.70;;;1.42;;
40150;SDS011;25866;52.420;10.640;2022-09-30T18:52:01;1.98;;;1.48;;
40150;SDS011;25866;52.420;10.640;2022-09-30T18:56:58;4.18;;;1.70;;
40150;SDS011;25866;52.420;10.640;2022-09-30T18:59:24;4.07;;;1.75;;
40150;SDS011;25866;52.420;10.640;2022-09-30T19:01:50;4.47;;;1.67;;
40150;SDS011;25866;52.420;10.640;2022-09-30T19:04:18;2.45;;;1.50;;
40150;SDS011;25866;52.420;10.640;2022-09-30T19:06:44;3.42;;;1.63;;
40150;SDS011;25866;52.420;10.640;2022-09-30T19:09:12;3.80;;;1.65;;
40150;SDS011;25866;52.420;10.640;2022-09-30T19:28:22;4.53;;;1.70;;